sensor_id;sensor_type;location;lat;lon;timestamp;pressure;altitude;pressure_sealevel;temperature;humidity
43161;BME280;40968;52.342;5.528;2022-12-29T00:00:02;99907.16;;;9.59;86.67
43161;BME280;40968;52.342;5.528;2022-12-29T00:02:29;99882.00;;;9.41;86.80
43161;BME280;40968;52.342;5.528;2022-12-29T00:04:56;99866.09;;;9.39;86.66
43161;BME280;40968;52.342;5.528;2022-12-29T00:07:22;99861.94;;;9.35;86.70
43161;BME280;40968;52.342;5.528;2022-12-29T00:09:50;99891.72;;;9.63;86.31
43161;BME280;40968;52.342;5.528;2022-12-29T00:12:17;99802.44;;;9.12;85.86
43161;BME280;40968;52.342;5.528;2022-12-29T00:14:43;99871.66;;;9.57;85.82
43161;BME280;40968;52.342;5.528;2022-12-29T00:17:28;99832.16;;;9.40;85.55
43161;BME280;40968;52.342;5.528;2022-12-29T00:19:54;99789.75;;;9.14;85.37
43161;BME280;40968;52.342;5.528;2022-12-29T00:22:37;99757.88;;;9.01;85.06
43161;BME280;40968;52.342;5.528;2022-12-29T00:25:23;99867.22;;;9.68;85.11
43161;BME280;40968;52.342;5.528;2022-12-29T00:28:08;99804.69;;;9.38;84.89
43161;BME280;40968;52.342;5.528;2022-12-29T00:30:52;99805.00;;;9.44;84.29
43161;BME280;40968;52.342;5.528;2022-12-29T00:33:36;99860.84;;;9.80;84.26
43161;BME280;40968;52.342;5.528;2022-12-29T00:36:25;99848.16;;;9.82;84.00
43161;BME280;40968;52.342;5.528;2022-12-29T00:38:57;99841.97;;;9.82;84.04
43161;BME280;40968;52.342;5.528;2022-12-29T00:41:45;99795.34;;;9.53;83.77
43161;BME280;40968;52.342;5.528;2022-12-29T00:44:29;99849.56;;;9.86;83.45
43161;BME280;40968;52.342;5.528;2022-12-29T00:46:55;99850.31;;;9.88;82.96
43161;BME280;40968;52.342;5.528;2022-12-29T00:49:22;99785.81;;;9.60;82.46
43161;BME280;40968;52.342;5.528;2022-12-29T00:51:59;99795.56;;;9.71;82.54
43161;BME280;40968;52.342;5.528;2022-12-29T00:54:27;99800.25;;;9.79;82.31
43161;BME280;40968;52.342;5.528;2022-12-29T00:56:55;99819.75;;;10.01;82.00
43161;BME280;40968;52.342;5.528;2022-12-29T00:59:21;99637.06;;;8.98;81.84
43161;BME280;40968;52.342;5.528;2022-12-29T01:01:49;99770.38;;;9.74;82.00
43161;BME280;40968;52.342;5.528;2022-12-29T01:04:16;99815.88;;;10.05;81.75
43161;BME280;40968;52.342;5.528;2022-12-29T01:06:42;99800.63;;;10.05;81.88
43161;BME280;40968;52.342;5.528;2022-12-29T01:09:09;99788.81;;;10.08;81.43
43161;BME280;40968;52.342;5.528;2022-12-29T01:11:55;99763.13;;;9.95;81.32
43161;BME280;40968;52.342;5.528;2022-12-29T01:14:22;99744.66;;;9.83;81.13
43161;BME280;40968;52.342;5.528;2022-12-29T01:16:49;99716.81;;;9.64;81.06
43161;BME280;40968;52.342;5.528;2022-12-29T01:19:16;99788.66;;;10.09;80.79
43161;BME280;40968;52.342;5.528;2022-12-29T01:21:43;99709.22;;;9.69;80.36
43161;BME280;40968;52.342;5.528;2022-12-29T01:24:10;99711.34;;;9.66;81.03
43161;BME280;40968;52.342;5.528;2022-12-29T01:26:37;99780.25;;;10.14;81.64
43161;BME280;40968;52.342;5.528;2022-12-29T01:29:05;99790.50;;;10.09;82.51
43161;BME280;40968;52.342;5.528;2022-12-29T01:31:31;99713.16;;;9.55;82.66
43161;BME280;40968;52.342;5.528;2022-12-29T01:33:58;99742.50;;;9.76;82.95
43161;BME280;40968;52.342;5.528;2022-12-29T01:36:25;99624.84;;;9.05;83.05
43161;BME280;40968;52.342;5.528;2022-12-29T01:38:51;99775.53;;;9.96;83.39
43161;BME280;40968;52.342;5.528;2022-12-29T01:41:19;99755.47;;;9.81;83.71
43161;BME280;40968;52.342;5.528;2022-12-29T01:43:47;99777.75;;;9.91;84.13
43161;BME280;40968;52.342;5.528;2022-12-29T01:46:21;99609.97;;;8.81;84.46
43161;BME280;40968;52.342;5.528;2022-12-29T01:48:52;99598.13;;;8.74;84.64
43161;BME280;40968;52.342;5.528;2022-12-29T01:51:22;99607.81;;;8.75;84.88
43161;BME280;40968;52.342;5.528;2022-12-29T01:53:49;99687.72;;;9.09;85.48
43161;BME280;40968;52.342;5.528;2022-12-29T01:56:19;99712.69;;;9.19;85.86
43161;BME280;40968;52.342;5.528;2022-12-29T01:58:49;99724.28;;;9.29;86.15
43161;BME280;40968;52.342;5.528;2022-12-29T02:01:21;99786.06;;;9.57;86.44
43161;BME280;40968;52.342;5.528;2022-12-29T02:03:50;99763.66;;;9.49;86.52
43161;BME280;40968;52.342;5.528;2022-12-29T02:06:21;99612.22;;;8.43;86.75
43161;BME280;40968;52.342;5.528;2022-12-29T02:08:50;99788.19;;;9.54;86.88
43161;BME280;40968;52.342;5.528;2022-12-29T02:11:17;99793.13;;;9.58;87.11
43161;BME280;40968;52.342;5.528;2022-12-29T02:13:44;99607.13;;;8.52;86.63
43161;BME280;40968;52.342;5.528;2022-12-29T02:16:22;99600.25;;;8.38;86.83
43161;BME280;40968;52.342;5.528;2022-12-29T02:19:09;99652.00;;;8.79;87.07
43161;BME280;40968;52.342;5.528;2022-12-29T02:25:07;99595.75;;;8.38;86.53
43161;BME280;40968;52.342;5.528;2022-12-29T02:28:03;99732.00;;;9.23;86.46
43161;BME280;40968;52.342;5.528;2022-12-29T02:30:44;99602.66;;;8.41;86.34
43161;BME280;40968;52.342;5.528;2022-12-29T02:33:20;99810.44;;;9.64;86.52
43161;BME280;40968;52.342;5.528;2022-12-29T02:35:55;99657.91;;;8.83;85.85
43161;BME280;40968;52.342;5.528;2022-12-29T02:38:35;99679.09;;;8.95;85.71
43161;BME280;40968;52.342;5.528;2022-12-29T02:41:13;99732.16;;;9.31;85.31
43161;BME280;40968;52.342;5.528;2022-12-29T02:43:48;99758.31;;;9.49;84.95
43161;BME280;40968;52.342;5.528;2022-12-29T02:46:20;99604.34;;;8.53;84.73
43161;BME280;40968;52.342;5.528;2022-12-29T02:48:54;99800.78;;;9.73;84.32
43161;BME280;40968;52.342;5.528;2022-12-29T02:51:28;99552.72;;;8.32;84.05
43161;BME280;40968;52.342;5.528;2022-12-29T02:53:56;99792.63;;;9.74;83.95
43161;BME280;40968;52.342;5.528;2022-12-29T02:56:41;99784.44;;;9.76;83.30
43161;BME280;40968;52.342;5.528;2022-12-29T02:59:09;99642.50;;;8.96;82.95
43161;BME280;40968;52.342;5.528;2022-12-29T03:01:48;99795.75;;;9.79;82.79
43161;BME280;40968;52.342;5.528;2022-12-29T03:04:38;99648.00;;;8.94;82.63
43161;BME280;40968;52.342;5.528;2022-12-29T03:07:14;99758.34;;;9.58;82.66
43161;BME280;40968;52.342;5.528;2022-12-29T03:09:52;99773.88;;;9.65;82.51
43161;BME280;40968;52.342;5.528;2022-12-29T03:12:29;99660.31;;;9.07;82.20
43161;BME280;40968;52.342;5.528;2022-12-29T03:15:21;99768.00;;;9.81;82.18
43161;BME280;40968;52.342;5.528;2022-12-29T03:18:12;99791.94;;;9.82;81.85
43161;BME280;40968;52.342;5.528;2022-12-29T03:20:45;99744.59;;;9.73;81.00
43161;BME280;40968;52.342;5.528;2022-12-29T03:23:15;99617.63;;;8.95;79.77
43161;BME280;40968;52.342;5.528;2022-12-29T03:25:46;99742.66;;;9.85;79.71
43161;BME280;40968;52.342;5.528;2022-12-29T03:28:18;99691.69;;;9.36;79.12
43161;BME280;40968;52.342;5.528;2022-12-29T03:30:47;99747.94;;;9.65;78.70
43161;BME280;40968;52.342;5.528;2022-12-29T03:33:17;99758.25;;;9.70;78.24
43161;BME280;40968;52.342;5.528;2022-12-29T03:35:47;99711.38;;;9.35;77.29
43161;BME280;40968;52.342;5.528;2022-12-29T03:38:19;99787.31;;;9.84;76.98
43161;BME280;40968;52.342;5.528;2022-12-29T03:40:50;99715.31;;;9.40;77.01
43161;BME280;40968;52.342;5.528;2022-12-29T03:43:18;99655.50;;;9.01;77.17
43161;BME280;40968;52.342;5.528;2022-12-29T03:45:45;99789.56;;;9.79;76.99
43161;BME280;40968;52.342;5.528;2022-12-29T03:48:12;99792.38;;;9.77;77.14
43161;BME280;40968;52.342;5.528;2022-12-29T03:50:40;99781.78;;;9.76;77.13
43161;BME280;40968;52.342;5.528;2022-12-29T03:53:07;99751.25;;;9.48;77.18
43161;BME280;40968;52.342;5.528;2022-12-29T03:55:33;99763.16;;;9.65;77.48
43161;BME280;40968;52.342;5.528;2022-12-29T03:58:00;99739.59;;;9.49;77.57
43161;BME280;40968;52.342;5.528;2022-12-29T04:00:27;99736.78;;;9.50;77.76
43161;BME280;40968;52.342;5.528;2022-12-29T04:02:53;99759.31;;;9.57;77.98
43161;BME280;40968;52.342;5.528;2022-12-29T04:05:20;99776.00;;;9.71;77.98
43161;BME280;40968;52.342;5.528;2022-12-29T04:07:48;99746.22;;;9.54;78.23
43161;BME280;40968;52.342;5.528;2022-12-29T04:10:15;99766.38;;;9.58;78.21
43161;BME280;40968;52.342;5.528;2022-12-29T04:12:41;99710.47;;;9.24;78.11
43161;BME280;40968;52.342;5.528;2022-12-29T04:15:09;99756.75;;;9.46;78.39
43161;BME280;40968;52.342;5.528;2022-12-29T04:17:35;99718.91;;;9.20;78.26
43161;BME280;40968;52.342;5.528;2022-12-29T04:20:02;99756.75;;;9.46;78.31
43161;BME280;40968;52.342;5.528;2022-12-29T04:22:43;99799.66;;;9.66;78.27
43161;BME280;40968;52.342;5.528;2022-12-29T04:25:11;99794.28;;;9.66;78.45
43161;BME280;40968;52.342;5.528;2022-12-29T04:27:38;99750.94;;;9.41;78.55
43161;BME280;40968;52.342;5.528;2022-12-29T04:30:05;99771.25;;;9.43;78.70
43161;BME280;40968;52.342;5.528;2022-12-29T04:32:32;99795.97;;;9.67;78.69
43161;BME280;40968;52.342;5.528;2022-12-29T04:34:58;99788.63;;;9.59;78.85
43161;BME280;40968;52.342;5.528;2022-12-29T04:37:25;99714.91;;;9.14;78.68
43161;BME280;40968;52.342;5.528;2022-12-29T04:39:51;99728.22;;;9.25;78.57
43161;BME280;40968;52.342;5.528;2022-12-29T04:42:19;99795.97;;;9.67;78.55
43161;BME280;40968;52.342;5.528;2022-12-29T04:44:46;99795.28;;;9.65;78.26
43161;BME280;40968;52.342;5.528;2022-12-29T04:47:12;99789.06;;;9.64;77.89
43161;BME280;40968;52.342;5.528;2022-12-29T04:49:39;99760.09;;;9.38;77.66
43161;BME280;40968;52.342;5.528;2022-12-29T04:52:06;99774.75;;;9.44;77.40
43161;BME280;40968;52.342;5.528;2022-12-29T04:54:33;99806.09;;;9.63;77.54
43161;BME280;40968;52.342;5.528;2022-12-29T04:57:00;99677.06;;;8.88;76.89
43161;BME280;40968;52.342;5.528;2022-12-29T04:59:28;99778.66;;;9.40;76.65
43161;BME280;40968;52.342;5.528;2022-12-29T05:01:54;99688.03;;;8.85;76.15
43161;BME280;40968;52.342;5.528;2022-12-29T05:04:21;99796.53;;;9.60;76.20
43161;BME280;40968;52.342;5.528;2022-12-29T05:06:47;99800.97;;;9.50;75.39
43161;BME280;40968;52.342;5.528;2022-12-29T05:09:14;99813.69;;;9.58;75.35
43161;BME280;40968;52.342;5.528;2022-12-29T05:11:41;99757.47;;;9.27;74.44
43161;BME280;40968;52.342;5.528;2022-12-29T05:14:07;99779.78;;;9.37;73.81
43161;BME280;40968;52.342;5.528;2022-12-29T05:16:35;99815.31;;;9.49;73.89
43161;BME280;40968;52.342;5.528;2022-12-29T05:19:02;99777.25;;;9.36;73.68
43161;BME280;40968;52.342;5.528;2022-12-29T05:21:29;99820.38;;;9.52;73.66
43161;BME280;40968;52.342;5.528;2022-12-29T05:23:55;99833.06;;;9.50;73.66
43161;BME280;40968;52.342;5.528;2022-12-29T05:26:22;99782.47;;;9.16;73.45
43161;BME280;40968;52.342;5.528;2022-12-29T05:28:48;99633.56;;;8.22;73.85
43161;BME280;40968;52.342;5.528;2022-12-29T05:31:15;99824.59;;;9.45;74.05
43161;BME280;40968;52.342;5.528;2022-12-29T05:33:43;99836.13;;;9.45;74.33
43161;BME280;40968;52.342;5.528;2022-12-29T05:36:13;99773.16;;;9.10;74.59
43161;BME280;40968;52.342;5.528;2022-12-29T05:38:40;99833.59;;;9.44;75.10
43161;BME280;40968;52.342;5.528;2022-12-29T05:41:07;99841.88;;;9.41;75.45
43161;BME280;40968;52.342;5.528;2022-12-29T05:43:33;99788.06;;;9.13;75.98
43161;BME280;40968;52.342;5.528;2022-12-29T05:46:00;99829.03;;;9.35;75.89
43161;BME280;40968;52.342;5.528;2022-12-29T05:48:27;99767.41;;;8.94;76.00
43161;BME280;40968;52.342;5.528;2022-12-29T05:50:55;99705.81;;;8.42;75.85
43161;BME280;40968;52.342;5.528;2022-12-29T05:53:21;99843.91;;;9.27;76.07
43161;BME280;40968;52.342;5.528;2022-12-29T05:55:48;99837.41;;;9.09;76.48
43161;BME280;40968;52.342;5.528;2022-12-29T05:58:15;99845.38;;;9.20;76.71
43161;BME280;40968;52.342;5.528;2022-12-29T06:00:42;99738.59;;;8.44;76.65
43161;BME280;40968;52.342;5.528;2022-12-29T06:03:09;99842.75;;;9.09;76.81
43161;BME280;40968;52.342;5.528;2022-12-29T06:05:36;99686.03;;;8.12;77.09
43161;BME280;40968;52.342;5.528;2022-12-29T06:08:04;99789.72;;;8.72;77.60
43161;BME280;40968;52.342;5.528;2022-12-29T06:10:31;99726.38;;;8.30;77.63
43161;BME280;40968;52.342;5.528;2022-12-29T06:12:57;99840.34;;;9.06;77.34
43161;BME280;40968;52.342;5.528;2022-12-29T06:15:24;99834.22;;;8.94;77.94
43161;BME280;40968;52.342;5.528;2022-12-29T06:17:50;99812.31;;;8.79;77.71
43161;BME280;40968;52.342;5.528;2022-12-29T06:20:17;99820.75;;;8.84;77.61
43161;BME280;40968;52.342;5.528;2022-12-29T06:22:44;99722.53;;;8.23;77.64
43161;BME280;40968;52.342;5.528;2022-12-29T06:25:13;99854.81;;;9.03;77.41
43161;BME280;40968;52.342;5.528;2022-12-29T06:27:39;99786.41;;;8.58;77.09
43161;BME280;40968;52.342;5.528;2022-12-29T06:30:07;99841.63;;;8.90;77.34
43161;BME280;40968;52.342;5.528;2022-12-29T06:32:34;99862.56;;;9.06;76.86
43161;BME280;40968;52.342;5.528;2022-12-29T06:35:01;99791.00;;;8.56;76.50
43161;BME280;40968;52.342;5.528;2022-12-29T06:37:28;99805.44;;;8.65;76.73
43161;BME280;40968;52.342;5.528;2022-12-29T06:39:54;99857.88;;;8.99;76.97
43161;BME280;40968;52.342;5.528;2022-12-29T06:42:22;99865.38;;;9.05;76.92
43161;BME280;40968;52.342;5.528;2022-12-29T06:44:49;99884.34;;;9.02;76.79
43161;BME280;40968;52.342;5.528;2022-12-29T06:47:15;99742.41;;;8.19;76.30
43161;BME280;40968;52.342;5.528;2022-12-29T06:49:42;99751.50;;;8.16;76.10
43161;BME280;40968;52.342;5.528;2022-12-29T06:52:09;99829.06;;;8.70;75.98
43161;BME280;40968;52.342;5.528;2022-12-29T06:54:35;99832.63;;;8.59;75.69
43161;BME280;40968;52.342;5.528;2022-12-29T06:57:02;99862.00;;;8.70;75.49
43161;BME280;40968;52.342;5.528;2022-12-29T06:59:30;99850.44;;;8.70;75.83
43161;BME280;40968;52.342;5.528;2022-12-29T07:01:56;99903.97;;;8.91;75.53
43161;BME280;40968;52.342;5.528;2022-12-29T07:04:23;99898.63;;;8.91;75.53
43161;BME280;40968;52.342;5.528;2022-12-29T07:06:50;99900.28;;;8.92;75.77
43161;BME280;40968;52.342;5.528;2022-12-29T07:09:16;99811.41;;;8.46;75.73
43161;BME280;40968;52.342;5.528;2022-12-29T07:11:43;99772.38;;;8.22;75.49
43161;BME280;40968;52.342;5.528;2022-12-29T07:14:10;99905.75;;;8.90;74.90
43161;BME280;40968;52.342;5.528;2022-12-29T07:16:38;99796.66;;;8.30;74.46
43161;BME280;40968;52.342;5.528;2022-12-29T07:19:05;99895.94;;;8.91;74.62
43161;BME280;40968;52.342;5.528;2022-12-29T07:21:32;99825.50;;;8.48;74.37
43161;BME280;40968;52.342;5.528;2022-12-29T07:23:58;99858.84;;;8.65;74.27
43161;BME280;40968;52.342;5.528;2022-12-29T07:26:25;99893.84;;;8.94;73.40
43161;BME280;40968;52.342;5.528;2022-12-29T07:28:51;99687.84;;;7.68;73.12
43161;BME280;40968;52.342;5.528;2022-12-29T07:31:20;99906.97;;;8.98;73.26
43161;BME280;40968;52.342;5.528;2022-12-29T07:33:49;99791.66;;;8.26;73.00
43161;BME280;40968;52.342;5.528;2022-12-29T07:36:16;99665.56;;;7.46;72.68
43161;BME280;40968;52.342;5.528;2022-12-29T07:38:42;99879.47;;;8.74;72.57
43161;BME280;40968;52.342;5.528;2022-12-29T07:41:09;99910.63;;;8.96;72.76
43161;BME280;40968;52.342;5.528;2022-12-29T07:43:36;99874.75;;;8.67;72.68
43161;BME280;40968;52.342;5.528;2022-12-29T07:46:03;99913.56;;;8.93;72.62
43161;BME280;40968;52.342;5.528;2022-12-29T07:48:30;99863.94;;;8.68;72.75
43161;BME280;40968;52.342;5.528;2022-12-29T07:51:00;99854.22;;;8.67;72.92
43161;BME280;40968;52.342;5.528;2022-12-29T07:53:26;99716.44;;;7.77;72.84
43161;BME280;40968;52.342;5.528;2022-12-29T07:55:53;99912.81;;;8.91;72.67
43161;BME280;40968;52.342;5.528;2022-12-29T07:58:20;99920.09;;;8.89;72.84
43161;BME280;40968;52.342;5.528;2022-12-29T08:00:46;99841.38;;;8.38;72.92
43161;BME280;40968;52.342;5.528;2022-12-29T08:03:13;99902.88;;;8.82;73.01
43161;BME280;40968;52.342;5.528;2022-12-29T08:05:39;99816.31;;;8.29;73.20
43161;BME280;40968;52.342;5.528;2022-12-29T08:08:07;99856.44;;;8.62;73.31
43161;BME280;40968;52.342;5.528;2022-12-29T08:10:34;99856.53;;;8.60;73.32
43161;BME280;40968;52.342;5.528;2022-12-29T08:13:01;99870.03;;;8.59;73.59
43161;BME280;40968;52.342;5.528;2022-12-29T08:15:27;99895.00;;;8.81;73.67
43161;BME280;40968;52.342;5.528;2022-12-29T08:17:54;99868.44;;;8.68;73.89
43161;BME280;40968;52.342;5.528;2022-12-29T08:20:21;99846.38;;;8.43;73.42
43161;BME280;40968;52.342;5.528;2022-12-29T08:22:47;99809.59;;;8.35;73.40
43161;BME280;40968;52.342;5.528;2022-12-29T08:25:15;99909.31;;;8.91;73.46
43161;BME280;40968;52.342;5.528;2022-12-29T08:27:42;99823.31;;;8.42;73.45
43161;BME280;40968;52.342;5.528;2022-12-29T08:30:10;99784.16;;;8.20;73.27
43161;BME280;40968;52.342;5.528;2022-12-29T08:32:36;99910.88;;;8.93;73.26
43161;BME280;40968;52.342;5.528;2022-12-29T08:35:04;99722.00;;;7.74;74.37
43161;BME280;40968;52.342;5.528;2022-12-29T08:37:32;99882.25;;;8.73;75.18
43161;BME280;40968;52.342;5.528;2022-12-29T08:39:58;99817.75;;;8.34;75.44
43161;BME280;40968;52.342;5.528;2022-12-29T08:42:30;99922.28;;;8.84;75.00
43161;BME280;40968;52.342;5.528;2022-12-29T08:44:57;99878.78;;;8.61;74.86
43161;BME280;40968;52.342;5.528;2022-12-29T08:47:23;99748.19;;;7.91;74.73
43161;BME280;40968;52.342;5.528;2022-12-29T08:49:50;99681.69;;;7.44;74.52
43161;BME280;40968;52.342;5.528;2022-12-29T08:52:17;99909.59;;;8.76;73.84
43161;BME280;40968;52.342;5.528;2022-12-29T08:54:44;99747.47;;;7.78;73.67
43161;BME280;40968;52.342;5.528;2022-12-29T08:57:11;99655.16;;;7.32;73.41
43161;BME280;40968;52.342;5.528;2022-12-29T08:59:39;99912.22;;;8.88;73.16
43161;BME280;40968;52.342;5.528;2022-12-29T09:02:05;99818.22;;;8.27;72.64
43161;BME280;40968;52.342;5.528;2022-12-29T09:04:32;99845.63;;;8.41;72.72
43161;BME280;40968;52.342;5.528;2022-12-29T09:06:58;99854.63;;;8.51;72.58
43161;BME280;40968;52.342;5.528;2022-12-29T09:09:25;99924.94;;;8.95;72.58
43161;BME280;40968;52.342;5.528;2022-12-29T09:11:52;99904.19;;;8.88;72.42
43161;BME280;40968;52.342;5.528;2022-12-29T09:14:19;99886.13;;;8.80;73.44
43161;BME280;40968;52.342;5.528;2022-12-29T09:16:50;99905.53;;;8.93;73.29
43161;BME280;40968;52.342;5.528;2022-12-29T09:19:34;99894.25;;;8.78;73.57
43161;BME280;40968;52.342;5.528;2022-12-29T09:22:00;99923.00;;;8.98;73.34
43161;BME280;40968;52.342;5.528;2022-12-29T09:24:28;99942.69;;;8.96;73.44
43161;BME280;40968;52.342;5.528;2022-12-29T09:26:54;99949.72;;;8.98;73.51
43161;BME280;40968;52.342;5.528;2022-12-29T09:29:21;99924.25;;;8.93;74.04
43161;BME280;40968;52.342;5.528;2022-12-29T09:31:49;99892.00;;;8.62;73.95
43161;BME280;40968;52.342;5.528;2022-12-29T09:34:16;99900.75;;;8.53;75.46
43161;BME280;40968;52.342;5.528;2022-12-29T09:36:43;99918.97;;;8.59;76.45
43161;BME280;40968;52.342;5.528;2022-12-29T09:39:09;99976.72;;;8.83;77.54
43161;BME280;40968;52.342;5.528;2022-12-29T09:41:39;99937.91;;;8.56;78.54
43161;BME280;40968;52.342;5.528;2022-12-29T09:44:14;99946.16;;;8.30;79.12
43161;BME280;40968;52.342;5.528;2022-12-29T09:46:46;99950.00;;;8.26;80.27
43161;BME280;40968;52.342;5.528;2022-12-29T09:49:23;99797.63;;;7.27;80.77
43161;BME280;40968;52.342;5.528;2022-12-29T09:51:53;99803.56;;;7.20;81.19
43161;BME280;40968;52.342;5.528;2022-12-29T09:54:31;100023.69;;;8.40;81.50
43161;BME280;40968;52.342;5.528;2022-12-29T09:57:01;100001.72;;;8.37;81.96
43161;BME280;40968;52.342;5.528;2022-12-29T09:59:38;99916.72;;;7.74;82.31
43161;BME280;40968;52.342;5.528;2022-12-29T10:02:18;99983.25;;;8.11;82.54
43161;BME280;40968;52.342;5.528;2022-12-29T10:04:51;100035.22;;;8.29;82.91
43161;BME280;40968;52.342;5.528;2022-12-29T10:07:26;99987.84;;;8.09;83.31
43161;BME280;40968;52.342;5.528;2022-12-29T10:10:03;100055.69;;;8.29;83.69
43161;BME280;40968;52.342;5.528;2022-12-29T10:13:01;99985.16;;;7.86;83.72
43161;BME280;40968;52.342;5.528;2022-12-29T10:15:52;100029.34;;;8.13;84.03
43161;BME280;40968;52.342;5.528;2022-12-29T10:18:36;100034.44;;;8.16;84.15
43161;BME280;40968;52.342;5.528;2022-12-29T10:21:08;100013.91;;;7.94;84.09
43161;BME280;40968;52.342;5.528;2022-12-29T10:23:44;99992.66;;;7.92;84.40
43161;BME280;40968;52.342;5.528;2022-12-29T10:26:14;99940.94;;;7.59;84.46
43161;BME280;40968;52.342;5.528;2022-12-29T10:28:43;100043.19;;;8.18;84.33
43161;BME280;40968;52.342;5.528;2022-12-29T10:31:16;99962.66;;;7.66;84.37
43161;BME280;40968;52.342;5.528;2022-12-29T10:33:45;99887.63;;;7.24;84.68
43161;BME280;40968;52.342;5.528;2022-12-29T10:36:18;99789.69;;;6.68;84.52
43161;BME280;40968;52.342;5.528;2022-12-29T10:38:54;100069.53;;;8.34;84.88
43161;BME280;40968;52.342;5.528;2022-12-29T10:41:26;99860.91;;;7.01;84.63
43161;BME280;40968;52.342;5.528;2022-12-29T10:43:54;100088.13;;;8.36;84.72
43161;BME280;40968;52.342;5.528;2022-12-29T10:46:27;99860.72;;;6.91;84.66
43161;BME280;40968;52.342;5.528;2022-12-29T10:48:54;100109.47;;;8.36;85.09
43161;BME280;40968;52.342;5.528;2022-12-29T10:51:24;100083.34;;;8.17;85.24
43161;BME280;40968;52.342;5.528;2022-12-29T10:53:57;99858.13;;;6.78;85.71
43161;BME280;40968;52.342;5.528;2022-12-29T10:56:29;99920.94;;;7.18;85.97
43161;BME280;40968;52.342;5.528;2022-12-29T10:59:01;100120.66;;;8.29;86.20
43161;BME280;40968;52.342;5.528;2022-12-29T11:01:36;99986.19;;;7.37;86.02
43161;BME280;40968;52.342;5.528;2022-12-29T11:04:03;100134.13;;;8.28;86.07
43161;BME280;40968;52.342;5.528;2022-12-29T11:06:33;99966.94;;;7.20;86.14
43161;BME280;40968;52.342;5.528;2022-12-29T11:09:08;99954.25;;;7.24;86.10
43161;BME280;40968;52.342;5.528;2022-12-29T11:11:37;99941.50;;;7.16;86.16
43161;BME280;40968;52.342;5.528;2022-12-29T11:14:11;100098.50;;;8.16;86.44
43161;BME280;40968;52.342;5.528;2022-12-29T11:16:39;100148.63;;;8.48;86.11
43161;BME280;40968;52.342;5.528;2022-12-29T11:19:20;100148.88;;;8.56;85.43
43161;BME280;40968;52.342;5.528;2022-12-29T11:21:48;100152.19;;;8.60;85.17
43161;BME280;40968;52.342;5.528;2022-12-29T11:24:20;100058.44;;;8.05;84.55
43161;BME280;40968;52.342;5.528;2022-12-29T11:26:49;100120.78;;;8.39;83.94
43161;BME280;40968;52.342;5.528;2022-12-29T11:29:23;100123.31;;;8.29;83.98
43161;BME280;40968;52.342;5.528;2022-12-29T11:31:52;100081.41;;;8.19;83.90
43161;BME280;40968;52.342;5.528;2022-12-29T11:34:21;100014.72;;;7.83;83.72
43161;BME280;40968;52.342;5.528;2022-12-29T11:36:51;100109.53;;;8.47;83.53
43161;BME280;40968;52.342;5.528;2022-12-29T11:39:27;100094.66;;;8.32;83.02
43161;BME280;40968;52.342;5.528;2022-12-29T11:41:54;100182.22;;;8.86;83.19
43161;BME280;40968;52.342;5.528;2022-12-29T11:44:21;100145.16;;;8.70;83.20
43161;BME280;40968;52.342;5.528;2022-12-29T11:46:50;100194.16;;;8.93;83.46
43161;BME280;40968;52.342;5.528;2022-12-29T11:49:20;100197.41;;;8.97;83.28
43161;BME280;40968;52.342;5.528;2022-12-29T11:51:50;100114.75;;;8.49;82.97
43161;BME280;40968;52.342;5.528;2022-12-29T11:54:21;100168.25;;;8.71;82.29
43161;BME280;40968;52.342;5.528;2022-12-29T11:56:48;100139.91;;;8.57;82.19
43161;BME280;40968;52.342;5.528;2022-12-29T11:59:37;100210.78;;;8.97;81.78
43161;BME280;40968;52.342;5.528;2022-12-29T12:02:26;100205.69;;;8.94;81.33
43161;BME280;40968;52.342;5.528;2022-12-29T12:05:01;100217.25;;;9.06;81.40
43161;BME280;40968;52.342;5.528;2022-12-29T12:07:37;100180.03;;;8.91;81.65
43161;BME280;40968;52.342;5.528;2022-12-29T12:10:06;100208.75;;;9.12;81.45
43161;BME280;40968;52.342;5.528;2022-12-29T12:12:41;100033.22;;;8.09;80.68
43161;BME280;40968;52.342;5.528;2022-12-29T12:15:15;100207.63;;;9.03;80.55
43161;BME280;40968;52.342;5.528;2022-12-29T12:17:49;100223.09;;;9.11;80.33
43161;BME280;40968;52.342;5.528;2022-12-29T12:20:20;100227.09;;;9.17;79.94
43161;BME280;40968;52.342;5.528;2022-12-29T12:22:58;99995.13;;;7.95;79.31
43161;BME280;40968;52.342;5.528;2022-12-29T12:25:31;100226.50;;;9.36;79.00
43161;BME280;40968;52.342;5.528;2022-12-29T12:28:05;100009.19;;;8.09;78.19
43161;BME280;40968;52.342;5.528;2022-12-29T12:30:40;100218.47;;;9.24;78.20
43161;BME280;40968;52.342;5.528;2022-12-29T12:33:16;100225.28;;;9.40;77.42
43161;BME280;40968;52.342;5.528;2022-12-29T12:35:52;100174.44;;;8.94;77.09
43161;BME280;40968;52.342;5.528;2022-12-29T12:38:27;100067.72;;;8.23;76.40
43161;BME280;40968;52.342;5.528;2022-12-29T12:41:00;100185.88;;;8.96;76.68
43161;BME280;40968;52.342;5.528;2022-12-29T12:43:41;100168.63;;;8.89;77.17
43161;BME280;40968;52.342;5.528;2022-12-29T12:46:15;100250.56;;;9.36;76.17
43161;BME280;40968;52.342;5.528;2022-12-29T12:49:01;100192.44;;;8.92;76.12
43161;BME280;40968;52.342;5.528;2022-12-29T12:51:34;100174.56;;;8.82;76.29
43161;BME280;40968;52.342;5.528;2022-12-29T12:54:28;100256.28;;;9.31;75.99
43161;BME280;40968;52.342;5.528;2022-12-29T12:57:09;100263.47;;;9.31;75.50
43161;BME280;40968;52.342;5.528;2022-12-29T12:59:49;100257.59;;;9.14;75.02
43161;BME280;40968;52.342;5.528;2022-12-29T13:02:29;100223.56;;;9.05;74.88
43161;BME280;40968;52.342;5.528;2022-12-29T13:05:09;100210.41;;;8.90;74.45
43161;BME280;40968;52.342;5.528;2022-12-29T13:07:47;100281.31;;;9.30;73.53
43161;BME280;40968;52.342;5.528;2022-12-29T13:10:28;100004.94;;;7.59;73.44
43161;BME280;40968;52.342;5.528;2022-12-29T13:13:24;100278.88;;;9.27;73.35
43161;BME280;40968;52.342;5.528;2022-12-29T13:15:59;100267.56;;;9.12;73.26
43161;BME280;40968;52.342;5.528;2022-12-29T13:18:37;100256.09;;;8.99;73.25
43161;BME280;40968;52.342;5.528;2022-12-29T13:21:19;100211.00;;;8.71;73.84
43161;BME280;40968;52.342;5.528;2022-12-29T13:23:57;100202.09;;;8.71;74.16
43161;BME280;40968;52.342;5.528;2022-12-29T13:26:32;100158.41;;;8.36;74.63
43161;BME280;40968;52.342;5.528;2022-12-29T13:29:08;100077.78;;;7.84;74.62